createdAt,value
2022-08-18T00:02:03.637Z,100658.22
2022-08-18T00:05:07.573Z,100646.75
2022-08-18T00:08:12.719Z,100660.22
2022-08-18T00:11:16.263Z,100652.03
2022-08-18T00:14:22.993Z,100660.44
2022-08-18T00:17:25.852Z,100653.00
2022-08-18T00:20:28.703Z,100648.13
2022-08-18T00:23:32.674Z,100648.31
2022-08-18T00:26:37.092Z,100638.53
2022-08-18T00:29:41.246Z,100643.66
2022-08-18T00:32:46.265Z,100637.94
2022-08-18T00:35:48.950Z,100639.00
2022-08-18T00:38:52.072Z,100639.69
2022-08-18T00:41:55.902Z,100638.75
2022-08-18T00:45:02.649Z,100629.06
2022-08-18T00:48:06.856Z,100624.97
2022-08-18T00:51:18.501Z,100631.75
2022-08-18T00:54:25.081Z,100628.38
2022-08-18T00:57:28.113Z,100632.00
2022-08-18T01:00:33.073Z,100631.88
2022-08-18T01:03:40.109Z,100625.44
2022-08-18T01:06:48.452Z,100615.31
2022-08-18T01:09:52.863Z,100615.19
2022-08-18T01:12:57.610Z,100620.00
2022-08-18T01:16:23.973Z,100623.34
2022-08-18T01:19:46.284Z,100626.63
2022-08-18T01:22:59.251Z,100633.28
2022-08-18T01:26:04.383Z,100623.25
2022-08-18T01:29:11.882Z,100628.97
2022-08-18T01:32:24.125Z,100639.00
2022-08-18T01:35:28.354Z,100635.69
2022-08-18T01:38:40.682Z,100625.31
2022-08-18T01:41:43.346Z,100629.28
2022-08-18T01:44:51.299Z,100625.09
2022-08-18T01:47:54.533Z,100622.03
2022-08-18T01:50:57.284Z,100618.28
2022-08-18T01:54:01.714Z,100618.28
2022-08-18T01:57:05.648Z,100613.38
2022-08-18T02:00:10.144Z,100614.78
2022-08-18T02:03:16.010Z,100607.06
2022-08-18T02:06:32.193Z,100599.22
2022-08-18T02:09:40.143Z,100597.84
2022-08-18T02:12:43.149Z,100599.09
2022-08-18T02:15:45.940Z,100587.78
2022-08-18T02:18:49.035Z,100588.66
2022-08-18T02:21:53.138Z,100591.41
2022-08-18T02:24:58.234Z,100591.16
2022-08-18T02:28:00.885Z,100591.34
2022-08-18T02:31:06.450Z,100599.63
2022-08-18T02:34:09.093Z,100591.09
2022-08-18T02:37:15.278Z,100597.84
2022-08-18T02:40:20.033Z,100589.66
2022-08-18T02:43:22.858Z,100597.13
2022-08-18T02:46:29.706Z,100595.81
2022-08-18T02:49:33.307Z,100598.00
2022-08-18T02:52:36.287Z,100602.66
2022-08-18T02:55:41.444Z,100600.06
2022-08-18T02:58:44.100Z,100593.50
2022-08-18T03:01:51.491Z,100593.50
2022-08-18T03:04:54.876Z,100586.63
2022-08-18T03:07:57.553Z,100591.59
2022-08-18T03:11:01.630Z,100591.66
2022-08-18T03:14:05.545Z,100596.28
2022-08-18T03:17:10.585Z,100598.09
2022-08-18T03:20:14.014Z,100599.63
2022-08-18T03:23:16.940Z,100599.38
2022-08-18T03:26:22.789Z,100601.69
2022-08-18T03:29:31.743Z,100601.22
2022-08-18T03:32:34.903Z,100597.91
2022-08-18T03:35:38.330Z,100601.22
2022-08-18T03:38:43.174Z,100601.59
2022-08-18T03:41:58.481Z,100598.25
2022-08-18T03:45:13.079Z,100599.88
2022-08-18T03:48:20.562Z,100598.88
2022-08-18T03:51:26.155Z,100607.56
2022-08-18T03:54:29.212Z,100602.31
2022-08-18T03:57:34.432Z,100603.34
2022-08-18T04:00:42.378Z,100596.94
2022-08-18T04:03:45.864Z,100608.59
2022-08-18T04:06:51.166Z,100603.69
2022-08-18T04:09:53.899Z,100604.63
2022-08-18T04:12:57.858Z,100608.09
2022-08-18T04:16:00.542Z,100616.88
2022-08-18T04:19:05.293Z,100621.97
2022-08-18T04:22:07.893Z,100623.72
2022-08-18T04:25:10.914Z,100626.69
2022-08-18T04:28:14.965Z,100626.69
2022-08-18T04:31:18.293Z,100626.50
2022-08-18T04:34:22.757Z,100619.09
2022-08-18T04:37:25.725Z,100622.34
2022-08-18T04:40:29.499Z,100622.53
2022-08-18T04:43:33.985Z,100624.59
2022-08-18T04:46:40.741Z,100613.91
2022-08-18T04:49:43.811Z,100620.78
2022-08-18T04:53:04.031Z,100623.16
2022-08-18T04:56:07.362Z,100628.88
2022-08-18T04:59:13.357Z,100628.16
2022-08-18T05:02:18.532Z,100628.34
2022-08-18T05:05:21.651Z,100632.84
2022-08-18T05:08:24.826Z,100634.00
2022-08-18T05:11:30.110Z,100645.09
2022-08-18T05:14:36.007Z,100644.44
2022-08-18T05:17:39.670Z,100647.44
2022-08-18T05:20:43.862Z,100653.38
2022-08-18T05:23:50.208Z,100648.19
2022-08-18T05:26:55.171Z,100652.91
2022-08-18T05:29:59.314Z,100651.94
2022-08-18T05:33:03.468Z,100658.34
2022-08-18T05:36:13.553Z,100664.00
2022-08-18T05:39:23.891Z,100675.69
2022-08-18T05:42:29.910Z,100677.22
2022-08-18T05:45:34.816Z,100687.31
2022-08-18T05:48:43.699Z,100692.38
2022-08-18T05:51:49.168Z,100686.69
2022-08-18T05:55:25.428Z,100683.56
2022-08-18T05:58:38.484Z,100679.13
2022-08-18T06:01:47.772Z,100683.81
2022-08-18T06:04:56.106Z,100683.38
2022-08-18T06:08:01.193Z,100678.59
2022-08-18T06:11:03.830Z,100680.94
2022-08-18T06:14:06.943Z,100684.31
2022-08-18T06:17:29.129Z,100681.06
2022-08-18T06:20:44.363Z,100673.88
2022-08-18T06:23:56.575Z,100680.34
2022-08-18T06:27:11.074Z,100674.81
2022-08-18T06:30:18.758Z,100679.88
2022-08-18T06:33:40.465Z,100685.97
2022-08-18T06:36:53.126Z,100679.19
2022-08-18T06:39:57.171Z,100679.00
2022-08-18T06:43:02.121Z,100679.19
2022-08-18T06:46:10.746Z,100687.56
2022-08-18T06:49:22.829Z,100682.66
2022-08-18T06:52:30.079Z,100680.88
2022-08-18T06:55:35.297Z,100683.03
2022-08-18T06:58:37.952Z,100681.34
2022-08-18T07:01:41.158Z,100692.84
2022-08-18T07:05:01.108Z,100687.06
2022-08-18T07:08:30.290Z,100690.47
2022-08-18T07:11:34.371Z,100689.59
2022-08-18T07:14:45.915Z,100688.63
2022-08-18T07:17:50.202Z,100690.09
2022-08-18T07:20:57.215Z,100689.91
2022-08-18T07:24:23.866Z,100687.78
2022-08-18T07:27:42.675Z,100684.97
2022-08-18T07:31:06.368Z,100680.00
2022-08-18T07:34:14.280Z,100684.72
2022-08-18T07:37:26.482Z,100692.16
2022-08-18T07:40:39.349Z,100687.59
2022-08-18T07:43:54.470Z,100690.84
2022-08-18T07:47:01.395Z,100686.97
2022-08-18T07:50:27.034Z,100693.66
2022-08-18T07:53:44.914Z,100694.72
2022-08-18T07:57:19.211Z,100696.34
2022-08-18T08:00:54.923Z,100705.41
2022-08-18T08:03:59.375Z,100708.88
2022-08-18T08:07:24.042Z,100705.16
2022-08-18T08:10:37.592Z,100718.28
2022-08-18T08:13:56.075Z,100710.81
2022-08-18T08:17:08.268Z,100716.13
2022-08-18T08:20:19.779Z,100719.38
2022-08-18T08:23:29.974Z,100716.25
2022-08-18T08:26:48.594Z,100717.16
2022-08-18T08:30:01.357Z,100716.84
2022-08-18T08:33:10.801Z,100728.28
2022-08-18T08:36:19.723Z,100728.19
2022-08-18T08:39:28.857Z,100735.59
2022-08-18T08:42:41.018Z,100736.75
2022-08-18T08:45:49.255Z,100740.56
2022-08-18T08:49:00.740Z,100735.72
2022-08-18T08:52:11.120Z,100732.38
2022-08-18T08:55:19.085Z,100722.88
2022-08-18T08:58:29.768Z,100720.19
2022-08-18T09:01:39.078Z,100726.06
2022-08-18T09:05:08.342Z,100713.00
2022-08-18T09:08:28.745Z,100700.34
2022-08-18T09:12:06.440Z,100707.09
2022-08-18T09:15:28.376Z,100711.00
2022-08-18T09:18:43.984Z,100709.72
2022-08-18T09:21:53.234Z,100698.03
2022-08-18T09:24:56.308Z,100694.69
2022-08-18T09:28:11.423Z,100684.34
2022-08-18T09:31:20.059Z,100695.38
2022-08-18T09:34:41.372Z,100686.59
2022-08-18T09:38:12.945Z,100692.03
2022-08-18T09:41:34.102Z,100687.69
2022-08-18T09:45:08.298Z,100680.25
2022-08-18T09:48:31.728Z,100676.66
2022-08-18T09:51:40.210Z,100679.50
2022-08-18T09:54:52.620Z,100673.63
2022-08-18T09:58:17.333Z,100667.34
2022-08-18T10:01:40.701Z,100670.38
2022-08-18T10:04:51.012Z,100664.13
2022-08-18T10:08:21.406Z,100659.63
2022-08-18T10:11:40.367Z,100655.84
2022-08-18T10:15:32.800Z,100646.69
2022-08-18T10:18:53.048Z,100647.53
2022-08-18T10:22:07.431Z,100649.97
2022-08-18T10:25:22.919Z,100649.94
2022-08-18T10:28:54.803Z,100657.16
2022-08-18T10:32:24.359Z,100649.75
2022-08-18T10:35:59.066Z,100664.22
2022-08-18T10:39:06.793Z,100664.19
2022-08-18T10:42:19.405Z,100664.22
2022-08-18T10:45:27.155Z,100665.00
2022-08-18T10:48:33.108Z,100665.16
2022-08-18T10:51:59.260Z,100658.56
2022-08-18T10:55:48.187Z,100655.00
2022-08-18T10:59:04.363Z,100643.75
2022-08-18T11:02:20.197Z,100638.88
2022-08-18T11:05:26.930Z,100634.56
2022-08-18T11:08:43.535Z,100636.59
2022-08-18T11:11:55.860Z,100632.50
2022-08-18T11:15:22.096Z,100630.09
2022-08-18T11:18:42.554Z,100637.34
2022-08-18T11:21:51.110Z,100629.47
2022-08-18T11:24:54.715Z,100630.13
2022-08-18T11:28:00.663Z,100623.97
2022-08-18T11:31:06.487Z,100627.03
2022-08-18T11:34:18.456Z,100627.59
2022-08-18T11:37:48.907Z,100630.75
2022-08-18T11:41:11.985Z,100626.72
2022-08-18T11:44:21.324Z,100630.72
2022-08-18T11:47:27.980Z,100620.53
2022-08-18T11:50:33.839Z,100625.72
2022-08-18T11:53:42.799Z,100623.66
2022-08-18T11:56:47.798Z,100616.06
2022-08-18T12:00:00.396Z,100615.25
2022-08-18T12:03:04.829Z,100611.94
2022-08-18T12:06:19.877Z,100610.78
2022-08-18T12:16:32.017Z,100608.44
2022-08-18T12:19:35.023Z,100606.97
2022-08-18T12:22:39.933Z,100604.72
2022-08-18T12:25:43.311Z,100604.22
2022-08-18T12:28:46.147Z,100597.50
2022-08-18T12:31:52.433Z,100603.59
2022-08-18T12:38:21.156Z,100595.91
2022-08-18T12:41:24.181Z,100590.22
2022-08-18T12:44:27.486Z,100586.16
2022-08-18T12:47:32.163Z,100581.47
2022-08-18T12:50:41.158Z,100583.44
2022-08-18T12:53:59.171Z,100578.19
2022-08-18T12:57:04.630Z,100577.63
2022-08-18T13:03:35.102Z,100567.56
2022-08-18T13:06:50.324Z,100570.59
2022-08-18T13:10:03.625Z,100562.44
2022-08-18T13:13:06.964Z,100562.63
2022-08-18T13:16:16.522Z,100550.16
2022-08-18T13:19:36.989Z,100555.53
2022-08-18T13:22:41.160Z,100548.66
2022-08-18T13:25:44.235Z,100538.34
2022-08-18T13:28:56.601Z,100528.22
2022-08-18T13:32:00.526Z,100524.03
2022-08-18T13:35:09.120Z,100524.50
2022-08-18T13:38:22.002Z,100516.22
2022-08-18T13:41:28.760Z,100523.91
2022-08-18T13:44:35.130Z,100517.78
2022-08-18T13:47:38.854Z,100523.69
2022-08-18T13:50:42.825Z,100518.22
2022-08-18T13:54:17.438Z,100527.16
2022-08-18T13:57:11.198Z,100513.22
2022-08-18T14:00:18.379Z,100514.38
2022-08-18T14:03:42.863Z,100503.28
2022-08-18T14:06:56.120Z,100498.00
2022-08-18T14:10:03.654Z,100489.59
2022-08-18T14:13:11.961Z,100487.25
2022-08-18T14:16:26.642Z,100481.69
2022-08-18T14:19:47.955Z,100477.56
2022-08-18T14:23:12.142Z,100475.50
2022-08-18T14:26:32.582Z,100473.72
2022-08-18T14:29:45.808Z,100474.28
2022-08-18T14:32:50.717Z,100478.88
2022-08-18T14:36:06.711Z,100502.84
2022-08-18T14:39:13.484Z,100520.44
2022-08-18T14:42:18.880Z,100522.00
2022-08-18T14:45:31.280Z,100530.56
2022-08-18T14:48:37.995Z,100515.47
2022-08-18T14:51:45.186Z,100507.84
2022-08-18T14:54:51.261Z,100524.75
2022-08-18T14:57:54.409Z,100530.38
2022-08-18T15:00:58.929Z,100526.44
2022-08-18T15:04:18.466Z,100540.66
2022-08-18T15:07:23.739Z,100545.03
2022-08-18T15:10:28.415Z,100546.25
2022-08-18T15:13:32.134Z,100542.84
2022-08-18T15:16:38.613Z,100539.00
2022-08-18T15:20:00.064Z,100542.44
2022-08-18T15:23:24.794Z,100556.19
2022-08-18T15:26:32.617Z,100562.78
2022-08-18T15:29:37.315Z,100569.31
2022-08-18T15:32:45.555Z,100547.84
2022-08-18T15:35:50.520Z,100550.31
2022-08-18T15:38:53.796Z,100536.97
2022-08-18T15:41:58.475Z,100537.31
2022-08-18T15:45:11.675Z,100541.81
2022-08-18T15:48:17.902Z,100535.31
2022-08-18T15:51:20.635Z,100523.97
2022-08-18T15:54:23.329Z,100512.63
2022-08-18T15:57:39.031Z,100519.13
2022-08-18T16:00:48.776Z,100517.09
2022-08-18T16:03:55.504Z,100518.69
2022-08-18T16:06:58.363Z,100523.53
2022-08-18T16:10:02.310Z,100515.41
2022-08-18T16:13:06.967Z,100517.03
2022-08-18T16:16:12.238Z,100515.00
2022-08-18T16:19:15.044Z,100515.00
2022-08-18T16:22:17.882Z,100512.16
2022-08-18T16:25:21.685Z,100517.00
2022-08-18T16:28:34.492Z,100521.84
2022-08-18T16:31:37.742Z,100523.06
2022-08-18T16:34:41.527Z,100530.75
2022-08-18T16:37:44.327Z,100543.31
2022-08-18T16:40:47.515Z,100554.19
2022-08-18T16:43:51.553Z,100587.75
2022-08-18T16:46:54.406Z,100588.53
2022-08-18T16:49:58.783Z,100595.97
2022-08-18T16:53:01.846Z,100596.53
2022-08-18T16:56:04.991Z,100594.03
2022-08-18T17:02:57.170Z,100607.56
2022-08-18T17:06:01.135Z,100605.69
2022-08-18T17:09:10.099Z,100600.59
2022-08-18T17:12:12.989Z,100597.19
2022-08-18T17:15:17.291Z,100612.28
2022-08-18T17:18:20.928Z,100597.84
2022-08-18T17:21:27.017Z,100593.63
2022-08-18T17:24:31.824Z,100593.25
2022-08-18T17:27:37.622Z,100588.13
2022-08-18T17:30:47.948Z,100600.94
2022-08-18T17:33:50.763Z,100593.81
2022-08-18T17:36:56.863Z,100593.84
2022-08-18T17:40:04.859Z,100580.28
2022-08-18T17:43:12.661Z,100594.38
2022-08-18T17:46:27.330Z,100592.38
2022-08-18T17:50:26.348Z,100598.19
2022-08-18T17:53:18.819Z,100586.94
2022-08-18T17:56:35.614Z,100579.63
2022-08-18T17:59:52.030Z,100572.94
2022-08-18T18:02:56.292Z,100569.41
2022-08-18T18:06:04.128Z,100569.72
2022-08-18T18:09:09.711Z,100568.44
2022-08-18T18:12:23.671Z,100556.09
2022-08-18T18:15:33.167Z,100567.72
2022-08-18T18:18:42.746Z,100580.91
2022-08-18T18:21:53.583Z,100585.53
2022-08-18T18:25:06.681Z,100579.31
2022-08-18T18:28:26.838Z,100577.22
2022-08-18T18:31:32.928Z,100570.72
2022-08-18T18:34:39.794Z,100574.50
2022-08-18T18:37:52.260Z,100580.22
2022-08-18T18:40:58.995Z,100586.56
2022-08-18T18:44:09.072Z,100590.09
2022-08-18T18:47:23.682Z,100600.00
2022-08-18T18:50:36.920Z,100617.25
2022-08-18T18:53:49.822Z,100622.50
2022-08-18T18:56:56.435Z,100620.56
2022-08-18T19:00:11.617Z,100621.72
2022-08-18T19:03:21.095Z,100621.50
2022-08-18T19:06:32.059Z,100622.84
2022-08-18T19:09:42.165Z,100630.63
2022-08-18T19:12:53.974Z,100637.34
2022-08-18T19:16:01.107Z,100629.31
2022-08-18T19:19:38.365Z,100633.06
2022-08-18T19:22:41.130Z,100631.50
2022-08-18T19:25:47.855Z,100632.50
2022-08-18T19:29:12.886Z,100627.81
2022-08-18T19:32:21.398Z,100632.59
2022-08-18T19:35:35.504Z,100629.66
2022-08-18T19:38:45.875Z,100627.66
2022-08-18T19:41:56.528Z,100627.34
2022-08-18T19:45:16.309Z,100629.22
2022-08-18T19:48:30.868Z,100621.84
2022-08-18T19:51:35.821Z,100625.31
2022-08-18T19:54:55.372Z,100617.31
2022-08-18T19:58:22.005Z,100608.84
2022-08-18T20:01:36.771Z,100618.50
2022-08-18T20:05:04.456Z,100619.31
2022-08-18T20:08:30.627Z,100626.97
2022-08-18T20:11:48.350Z,100623.44
2022-08-18T20:15:02.763Z,100627.28
2022-08-18T20:18:20.005Z,100633.72
2022-08-18T20:21:39.811Z,100627.06
2022-08-18T20:24:50.844Z,100625.88
2022-08-18T20:28:32.752Z,100626.78
2022-08-18T20:31:51.533Z,100625.44
2022-08-18T20:34:54.150Z,100658.47
2022-08-18T20:38:14.761Z,100646.22
2022-08-18T20:41:43.568Z,100642.94
2022-08-18T20:44:58.734Z,100648.09
2022-08-18T20:48:14.056Z,100652.75
2022-08-18T20:51:25.166Z,100660.13
2022-08-18T20:54:39.944Z,100650.41
2022-08-18T20:58:05.462Z,100643.63
2022-08-18T21:01:13.919Z,100632.56
2022-08-18T21:04:16.589Z,100636.41
2022-08-18T21:07:34.197Z,100635.13
2022-08-18T21:10:48.830Z,100641.34
2022-08-18T21:13:53.677Z,100643.69
2022-08-18T21:16:58.880Z,100647.50
2022-08-18T21:20:06.509Z,100643.97
2022-08-18T21:23:12.183Z,100637.22
2022-08-18T21:26:17.340Z,100632.16
2022-08-18T21:29:20.108Z,100624.13
2022-08-18T21:32:29.301Z,100611.06
2022-08-18T21:35:35.237Z,100600.78
2022-08-18T21:38:37.873Z,100608.38
2022-08-18T21:41:42.797Z,100610.72
2022-08-18T21:44:47.681Z,100605.56
2022-08-18T21:47:56.621Z,100599.59
2022-08-18T21:51:02.043Z,100604.84
2022-08-18T21:54:05.079Z,100609.06
2022-08-18T21:57:23.417Z,100617.91
2022-08-18T22:00:28.424Z,100637.13
2022-08-18T22:03:33.910Z,100621.25
2022-08-18T22:06:40.215Z,100629.44
2022-08-18T22:10:16.816Z,100627.81
2022-08-18T22:13:39.558Z,100627.34
2022-08-18T22:16:42.565Z,100621.63
2022-08-18T22:19:46.525Z,100624.53
2022-08-18T22:23:07.226Z,100611.69
2022-08-18T22:26:13.141Z,100615.88
2022-08-18T22:29:26.383Z,100606.78
2022-08-18T22:32:29.016Z,100607.22
2022-08-18T22:35:33.234Z,100602.13
2022-08-18T22:38:36.340Z,100606.16
2022-08-18T22:41:39.890Z,100599.63
2022-08-18T22:44:43.589Z,100606.91
2022-08-18T22:47:46.378Z,100599.66
2022-08-18T22:50:51.540Z,100609.22
2022-08-18T22:53:55.884Z,100609.41
2022-08-18T22:56:59.281Z,100619.06
2022-08-18T23:00:03.825Z,100630.03
2022-08-18T23:03:06.486Z,100645.59
2022-08-18T23:06:11.257Z,100650.03
2022-08-18T23:09:13.881Z,100644.97
2022-08-18T23:12:16.707Z,100637.63
2022-08-18T23:15:19.636Z,100636.66
2022-08-18T23:18:24.787Z,100626.91
2022-08-18T23:21:34.116Z,100642.28
2022-08-18T23:24:38.301Z,100653.25
2022-08-18T23:27:41.367Z,100651.75
2022-08-18T23:30:44.873Z,100641.84
2022-08-18T23:33:47.507Z,100629.50
2022-08-18T23:36:56.544Z,100630.78
2022-08-18T23:39:59.319Z,100627.25
2022-08-18T23:43:02.772Z,100634.00
2022-08-18T23:46:06.646Z,100638.31
2022-08-18T23:49:10.841Z,100641.84
2022-08-18T23:52:15.090Z,100636.72
2022-08-18T23:55:17.951Z,100628.16
2022-08-18T23:58:20.890Z,100627.00
